Météo Nord-Pas-de-Calais   La météo au plus près de chez vous

Station météorologique

Observations météo à St Vaast La Hougue (50562)

50562001 17 m Dernier relevé à 14:00
20°C
Vent 40 km/h

Journée consultée

Lundi 31 Août 2026

Synthèse de la journée

Périodes de référence en UTC

Température maximale

20.4°C

à 14:00

06h 06h

Température minimale

16.5°C

à 02:00

18h 18h

Rafale maximale

55 km/h

à 12:00

00h 00h

Précipitations

0 mm

Cumul quotidien

06h 06h

Graphiques de la journée

Heure locale Réduire

Données détaillées

Relevés météo

Pas de 6 minutes Afficher les relevés infra-horaires
Relevés météo détaillés à St Vaast La Hougue pour le Lundi 31 Août 2026
Heure Température °C Vent moyen (raf.), km/h Précipitations mm
14:00 20 °C 39 km/h (53 km/h) 0 mm0 mm
13:54 20.2 °C 36 km/h (53 km/h) 0 mm0 mm
13:48 20.3 °C 36 km/h (48 km/h) 0 mm0 mm
13:42 20.1 °C 36 km/h (50 km/h) 0 mm0 mm
13:36 20 °C 38 km/h (48 km/h) 0 mm0 mm
13:30 20 °C 43 km/h (54 km/h) 0 mm0 mm
13:24 20.2 °C 42 km/h (54 km/h) 0 mm0 mm
13:18 20 °C 41 km/h (53 km/h) 0 mm0 mm
13:12 19.9 °C 41 km/h (53 km/h) 0 mm0 mm
13:06 20.2 °C 41 km/h (53 km/h) 0 mm0 mm
13:00 19.8 °C 40 km/h (49 km/h) 0 mm0 mm
12:54 19.8 °C 40 km/h (54 km/h) 0 mm0 mm
12:48 20 °C 40 km/h (49 km/h) 0 mm0 mm
12:42 19.8 °C 40 km/h (54 km/h) 0 mm0 mm
12:36 20.2 °C 38 km/h (50 km/h) 0 mm0 mm
12:30 19.9 °C 36 km/h (50 km/h) 0 mm0 mm
12:24 20.1 °C 38 km/h (49 km/h) 0 mm0 mm
12:18 19.8 °C 38 km/h (48 km/h) 0 mm0 mm
12:12 19.7 °C 37 km/h (47 km/h) 0 mm0 mm
12:06 19.4 °C 40 km/h (55 km/h) 0 mm0 mm
12:00 19.6 °C 40 km/h (55 km/h) 0 mm0 mm
11:54 19.5 °C 37 km/h (47 km/h) 0 mm0 mm
11:48 19.4 °C 36 km/h (47 km/h) 0 mm0 mm
11:42 19 °C 39 km/h (47 km/h) 0 mm0 mm
11:36 19.1 °C 39 km/h (46 km/h) 0 mm0 mm
11:30 19.5 °C 40 km/h (50 km/h) 0 mm0 mm
11:24 19.2 °C 40 km/h (53 km/h) 0 mm0 mm
11:18 19 °C 39 km/h (53 km/h) 0 mm0 mm
11:12 19.3 °C 39 km/h (50 km/h) 0 mm0 mm
11:06 18.9 °C 37 km/h (50 km/h) 0 mm0 mm
11:00 18.8 °C 36 km/h (45 km/h) 0 mm0 mm
10:54 19 °C 37 km/h (49 km/h) 0 mm0 mm
10:48 19.2 °C 36 km/h (49 km/h) 0 mm0 mm
10:42 18.8 °C 39 km/h (49 km/h) 0 mm0 mm
10:36 18.8 °C 37 km/h (47 km/h) 0 mm0 mm
10:30 18.8 °C 38 km/h (51 km/h) 0 mm0 mm
10:24 18.4 °C 37 km/h (51 km/h) 0 mm0 mm
10:18 18.6 °C 31 km/h (42 km/h) 0 mm0 mm
10:12 18.3 °C 32 km/h (40 km/h) 0 mm0 mm
10:06 18.6 °C 33 km/h (44 km/h) 0 mm0 mm
10:00 18.5 °C 34 km/h (44 km/h) 0 mm0 mm
09:54 18.3 °C 31 km/h (44 km/h) 0 mm0 mm
09:48 18.3 °C 31 km/h (45 km/h) 0 mm0 mm
09:42 18.2 °C 30 km/h (45 km/h) 0 mm0 mm
09:36 18 °C 31 km/h (39 km/h) 0 mm0 mm
09:30 18 °C 30 km/h (37 km/h) 0 mm0 mm
09:24 17.9 °C 30 km/h (42 km/h) 0 mm0 mm
09:18 17.7 °C 31 km/h (42 km/h) 0 mm0 mm
09:12 17.6 °C 31 km/h (42 km/h) 0 mm0 mm
09:06 17.5 °C 31 km/h (46 km/h) 0 mm0 mm
09:00 17.3 °C 31 km/h (38 km/h) 0 mm0 mm
08:54 17.1 °C 27 km/h (35 km/h) 0 mm0 mm
08:48 17 °C 24 km/h (33 km/h) 0 mm0 mm
08:42 16.8 °C 23 km/h (31 km/h) 0 mm0 mm
08:36 16.8 °C 26 km/h (34 km/h) 0 mm0 mm
08:30 16.7 °C 31 km/h (41 km/h) 0 mm0 mm
08:24 16.7 °C 33 km/h (41 km/h) 0 mm0 mm
08:18 16.7 °C 35 km/h (45 km/h) 0 mm0 mm
08:12 16.7 °C 35 km/h (45 km/h) 0 mm0 mm
08:06 16.8 °C 35 km/h (46 km/h) 0 mm0 mm
08:00 16.9 °C 37 km/h (46 km/h) 0 mm0 mm
07:54 17 °C 35 km/h (46 km/h) 0 mm0 mm
07:48 17.1 °C 36 km/h (44 km/h) 0 mm0 mm
07:42 17 °C 38 km/h (48 km/h) 0 mm0 mm
07:36 17 °C 37 km/h (48 km/h) 0 mm0 mm
07:30 17 °C 36 km/h (44 km/h) 0 mm0 mm
07:24 16.9 °C 34 km/h (44 km/h) 0 mm0 mm
07:18 16.9 °C 32 km/h (42 km/h) 0 mm0 mm
07:12 16.8 °C 35 km/h (43 km/h) 0 mm0 mm
07:06 16.8 °C 35 km/h (43 km/h) 0 mm0 mm
07:00 16.8 °C 34 km/h (43 km/h) 0 mm0 mm
06:54 16.7 °C 36 km/h (44 km/h) 0 mm0 mm
06:48 16.7 °C 36 km/h (44 km/h) 0 mm0 mm
06:42 16.7 °C 34 km/h (42 km/h) 0 mm0 mm
06:36 16.7 °C 33 km/h (39 km/h) 0 mm0 mm
06:30 16.6 °C 32 km/h (38 km/h) 0 mm0 mm
06:24 16.7 °C 33 km/h (39 km/h) 0 mm0 mm
06:18 16.7 °C 32 km/h (38 km/h) 0 mm0 mm
06:12 16.7 °C 30 km/h (40 km/h) 0 mm0 mm
06:06 16.7 °C 31 km/h (40 km/h) 0 mm0 mm
06:00 16.8 °C 30 km/h (39 km/h) 0 mm0 mm
05:54 16.8 °C 31 km/h (42 km/h) 0 mm0 mm
05:48 16.8 °C 31 km/h (42 km/h) 0 mm0 mm
05:42 16.8 °C 31 km/h (41 km/h) 0 mm0 mm
05:36 16.7 °C 31 km/h (41 km/h) 0 mm0 mm
05:30 16.7 °C 29 km/h (35 km/h) 0 mm0 mm
05:24 16.7 °C 27 km/h (35 km/h) 0 mm0 mm
05:18 16.7 °C 26 km/h (35 km/h) 0 mm0 mm
05:12 16.7 °C 27 km/h (37 km/h) 0 mm0 mm
05:06 16.8 °C 30 km/h (41 km/h) 0 mm0 mm
05:00 16.7 °C 31 km/h (48 km/h) 0 mm0 mm
04:54 16.8 °C 35 km/h (48 km/h) 0 mm0 mm
04:48 16.7 °C 35 km/h (47 km/h) 0 mm0 mm
04:42 16.7 °C 34 km/h (42 km/h) 0 mm0 mm
04:36 16.8 °C 37 km/h (55 km/h) 0 mm0 mm
04:30 16.9 °C 41 km/h (55 km/h) 0 mm0 mm
04:24 16.8 °C 41 km/h (52 km/h) 0 mm0 mm
04:18 16.8 °C 41 km/h (50 km/h) 0 mm0 mm
04:12 16.9 °C 41 km/h (51 km/h) 0 mm0 mm
04:06 16.8 °C 44 km/h (55 km/h) 0 mm0 mm
04:00 16.9 °C 44 km/h (53 km/h) 0 mm1.6 mm
03:54 16.8 °C 43 km/h (54 km/h) 0 mm0 mm
03:48 16.9 °C 41 km/h (54 km/h) 0.2 mm0 mm
03:42 17 °C 38 km/h (47 km/h) 0.6 mm0 mm
03:36 17.3 °C 36 km/h (42 km/h) 0 mm0 mm
03:30 17.1 °C 35 km/h (42 km/h) 0 mm0 mm
03:24 17.2 °C 38 km/h (49 km/h) 0 mm0 mm
03:18 17.2 °C 40 km/h (49 km/h) 0 mm0 mm
03:12 17 °C 41 km/h (51 km/h) 0.2 mm0 mm
03:06 17.1 °C 42 km/h (53 km/h) 0.6 mm0 mm
03:00 17.4 °C 41 km/h (53 km/h) 0 mm0.4 mm
02:54 17.3 °C 39 km/h (48 km/h) 0 mm0 mm
02:48 17.4 °C 36 km/h (46 km/h) 0 mm0 mm
02:42 17.4 °C 42 km/h (55 km/h) 0 mm0 mm
02:36 17.4 °C 41 km/h (55 km/h) 0.2 mm0 mm
02:30 17.4 °C 38 km/h (51 km/h) 0 mm0 mm
02:24 17.4 °C 39 km/h (49 km/h) 0.2 mm0 mm
02:18 17.2 °C 38 km/h (49 km/h) 0 mm0 mm
02:12 17.2 °C 38 km/h (52 km/h) 0 mm0 mm
02:06 17.2 °C 41 km/h (52 km/h) 0 mm0 mm
02:00 16.8 °C 37 km/h (49 km/h) 0.4 mm5 mm
01:54 16.7 °C 33 km/h (45 km/h) 0.8 mm0 mm
01:48 16.7 °C 36 km/h (50 km/h) 1.6 mm0 mm
01:42 17 °C 44 km/h (58 km/h) 0.6 mm0 mm
01:36 17.2 °C 48 km/h (60 km/h) 1.4 mm0 mm
01:30 18 °C 44 km/h (60 km/h) 0 mm0 mm
01:24 18 °C 37 km/h (47 km/h) 0.2 mm0 mm
01:18 18.1 °C 35 km/h (44 km/h) 0 mm0 mm
01:12 18.1 °C 35 km/h (44 km/h) 0 mm0 mm
01:06 18 °C 33 km/h (44 km/h) 0 mm0 mm
01:00 18.1 °C 33 km/h (44 km/h) 0 mm0 mm
00:54 18.2 °C 33 km/h (44 km/h) 0 mm0 mm
00:48 18.1 °C 35 km/h (43 km/h) 0 mm0 mm
00:42 18 °C 33 km/h (43 km/h) 0 mm0 mm
00:36 18.2 °C 33 km/h (42 km/h) 0 mm0 mm
00:30 18.2 °C 35 km/h (42 km/h) 0 mm0 mm
00:24 18.2 °C 36 km/h (42 km/h) 0 mm0 mm
00:18 18.3 °C 37 km/h (43 km/h) 0 mm0 mm
00:12 18.3 °C 38 km/h (49 km/h) 0 mm0 mm
00:06 18.5 °C 40 km/h (57 km/h) 0 mm0 mm
00:00 18.4 °C 38 km/h (57 km/h) 0 mm0 mm

Données via Météo-France

Relevés météo à St Vaast La Hougue

Cette page rassemble les observations de la station de St Vaast La Hougue : température, humidité, vent, précipitations et pression atmosphérique. Les graphiques facilitent le suivi de la journée, tandis que le tableau donne accès aux mesures horaires et infra-horaires disponibles.

Pour replacer ces mesures dans leur contexte, consultez la climatologie de St Vaast La Hougue. Retrouvez aussi la carte des observations météo en temps réel.